Time;durP1;ratioP1;P1;durP2;ratioP2;P2;SDS_P1;SDS_P2;PMS_P1;PMS_P2;Temp;Humidity;BMP_temperature;BMP_pressure;BME280_temperature;BME280_humidity;BME280_pressure;Samples;Min_cycle;Max_cycle;Signal;HPM_P1;HPM_P2
2023/02/23 00:00:27;;;;;;;13.37;4.83;;;;;;;6.64;91.09;100872.94;5032602;28;20466;-65
2023/02/23 00:02:54;;;;;;;13.83;6.00;;;;;;;6.61;90.45;100867.28;5032656;28;20457;-66
2023/02/23 00:05:22;;;;;;;16.70;5.53;;;;;;;6.55;90.57;100874.50;5032625;28;20490;-65
2023/02/23 00:07:49;;;;;;;11.70;5.70;;;;;;;6.51;90.85;100868.06;5032679;28;20451;-65
2023/02/23 00:10:17;;;;;;;16.73;6.20;;;;;;;6.51;90.51;100868.88;5032665;28;20465;-65
2023/02/23 00:12:44;;;;;;;16.37;5.57;;;;;;;6.51;89.95;100868.06;5032668;28;20863;-66
2023/02/23 00:15:14;;;;;;;10.47;4.93;;;;;;;6.46;90.77;100855.41;5032418;28;20478;-66
2023/02/23 00:17:41;;;;;;;21.73;5.80;;;;;;;6.43;91.09;100853.25;5032757;28;20493;-66
2023/02/23 00:20:10;;;;;;;15.43;5.30;;;;;;;6.45;90.88;100852.97;5032708;28;20443;-66
2023/02/23 00:22:38;;;;;;;13.57;5.87;;;;;;;6.45;91.74;100845.69;5033020;28;20486;-66
2023/02/23 00:25:07;;;;;;;16.10;6.13;;;;;;;6.47;91.11;100850.84;5032897;28;20505;-66
2023/02/23 00:27:37;;;;;;;16.13;5.90;;;;;;;6.45;91.11;100856.47;5032667;28;20447;-66
2023/02/23 00:30:06;;;;;;;25.43;5.97;;;;;;;6.44;91.31;100846.78;5032690;28;20447;-66
2023/02/23 00:32:34;;;;;;;15.53;5.87;;;;;;;6.46;91.48;100841.13;5032151;28;20442;-66
2023/02/23 00:35:00;;;;;;;19.93;7.63;;;;;;;6.34;91.44;100836.00;5032840;28;20495;-66
2023/02/23 00:37:27;;;;;;;16.23;5.70;;;;;;;6.35;91.32;100840.31;5032408;28;20489;-66
2023/02/23 00:39:56;;;;;;;15.00;5.90;;;;;;;6.30;91.40;100837.63;5032632;28;20470;-65
2023/02/23 00:42:23;;;;;;;13.83;5.90;;;;;;;6.22;91.93;100832.75;5031882;28;20532;-66
2023/02/23 00:44:50;;;;;;;17.60;5.90;;;;;;;6.32;92.33;100838.16;5032799;28;20471;-67
2023/02/23 00:47:16;;;;;;;15.30;6.90;;;;;;;6.27;92.83;100847.00;5036279;28;20435;-67
2023/02/23 00:49:45;;;;;;;13.03;6.23;;;;;;;6.32;93.20;100838.94;5036119;28;20443;-68
2023/02/23 00:52:13;;;;;;;21.73;6.40;;;;;;;6.32;93.51;100841.63;5036330;28;20470;-67
2023/02/23 00:54:41;;;;;;;15.70;6.20;;;;;;;6.35;93.37;100845.69;5036191;28;20553;-68
2023/02/23 00:57:08;;;;;;;22.63;5.80;;;;;;;6.31;93.52;100837.34;5036039;28;20443;-67
2023/02/23 00:59:34;;;;;;;13.80;6.03;;;;;;;6.36;93.16;100841.13;5035819;28;20448;-67
2023/02/23 01:02:01;;;;;;;15.07;6.20;;;;;;;6.38;92.89;100841.69;5036020;28;20478;-67
2023/02/23 01:04:28;;;;;;;19.53;7.23;;;;;;;6.43;92.79;100841.69;5035731;28;20885;-68
2023/02/23 01:06:56;;;;;;;16.53;6.77;;;;;;;6.44;93.02;100846.78;5035758;28;20874;-67
2023/02/23 01:09:26;;;;;;;16.77;6.60;;;;;;;6.41;92.96;100841.94;5035653;28;20442;-67
2023/02/23 01:11:55;;;;;;;13.50;6.50;;;;;;;6.44;92.29;100845.97;5035463;28;20913;-67
2023/02/23 01:14:22;;;;;;;20.90;7.10;;;;;;;6.36;92.73;100841.13;5035460;28;20518;-67
2023/02/23 01:16:48;;;;;;;14.23;6.20;;;;;;;6.37;93.01;100838.16;5035772;28;20519;-67
2023/02/23 01:19:15;;;;;;;16.17;6.33;;;;;;;6.35;93.07;100837.63;5035768;28;20453;-67
2023/02/23 01:21:42;;;;;;;30.83;7.93;;;;;;;6.35;92.69;100831.44;5035599;28;20569;-66
2023/02/23 01:24:12;;;;;;;13.60;6.40;;;;;;;6.32;93.17;100828.19;5035357;28;20463;-67
2023/02/23 01:26:41;;;;;;;19.83;7.20;;;;;;;6.39;93.16;100827.94;5035094;28;20474;-66
2023/02/23 01:29:10;;;;;;;17.73;7.20;;;;;;;6.35;92.25;100826.84;5035025;28;20439;-67
2023/02/23 01:31:39;;;;;;;18.90;6.00;;;;;;;6.34;92.65;100824.44;5035275;28;20618;-67
2023/02/23 01:34:06;;;;;;;16.70;6.40;;;;;;;6.29;92.67;100822.56;5035110;28;20836;-66
2023/02/23 01:36:34;;;;;;;16.00;6.60;;;;;;;6.24;92.91;100823.34;5035103;28;20470;-67
2023/02/23 01:39:04;;;;;;;18.30;7.77;;;;;;;6.25;92.97;100821.47;5035635;28;20454;-67
2023/02/23 01:41:33;;;;;;;13.07;5.90;;;;;;;6.16;93.10;100823.88;5035126;28;20482;-65
2023/02/23 01:44:03;;;;;;;19.80;6.43;;;;;;;6.15;92.91;100816.84;5034955;28;20459;-66
2023/02/23 01:46:32;;;;;;;21.80;7.67;;;;;;;6.19;93.01;100812.56;5034904;28;20933;-67
2023/02/23 01:48:59;;;;;;;15.50;6.60;;;;;;;6.17;93.15;100817.41;5035140;28;20431;-66
2023/02/23 01:51:27;;;;;;;14.53;7.53;;;;;;;6.13;93.28;100807.47;5035131;28;20883;-67
2023/02/23 01:53:59;;;;;;;17.20;6.73;;;;;;;6.18;92.92;100808.25;5034838;28;20458;-67
2023/02/23 01:56:29;;;;;;;23.00;7.43;;;;;;;6.13;93.65;100810.16;5034685;28;20924;-67
2023/02/23 01:59:02;;;;;;;19.83;6.80;;;;;;;6.16;93.25;100796.97;5034447;28;20921;-67
2023/02/23 02:01:29;;;;;;;20.07;7.80;;;;;;;6.07;93.12;100795.88;5034769;28;20903;-65
2023/02/23 02:03:58;;;;;;;20.30;7.23;;;;;;;6.02;93.29;100793.16;5034659;28;20464;-66
2023/02/23 02:06:27;;;;;;;17.60;6.80;;;;;;;6.01;93.60;100795.03;5034575;28;20438;-67
2023/02/23 02:08:57;;;;;;;21.60;7.87;;;;;;;6.03;93.98;100792.91;5034460;28;20454;-67
2023/02/23 02:11:34;;;;;;;26.77;7.73;;;;;;;6.01;94.12;100791.56;5034757;28;20482;-67
2023/02/23 02:14:11;;;;;;;14.93;6.23;;;;;;;6.10;94.50;100798.03;5034436;28;20511;-67
2023/02/23 02:17:06;;;;;;;17.20;6.80;;;;;;;6.14;94.57;100790.25;5034372;28;20431;-67
2023/02/23 02:20:12;;;;;;;19.57;7.27;;;;;;;6.16;94.33;100796.97;5034714;28;20506;-67
2023/02/23 02:22:59;;;;;;;20.73;6.50;;;;;;;6.18;93.98;100789.44;5034499;28;20483;-67
2023/02/23 02:25:50;;;;;;;22.30;6.53;;;;;;;6.16;93.84;100775.47;5034501;28;20901;-67
2023/02/23 02:28:30;;;;;;;27.40;7.47;;;;;;;6.06;93.86;100778.94;5034659;28;20875;-67
2023/02/23 02:31:35;;;;;;;19.47;8.00;;;;;;;6.03;94.42;100771.41;5034480;28;20522;-67
2023/02/23 02:34:44;;;;;;;19.63;8.43;;;;;;;5.97;94.67;100777.03;5033570;28;20819;-67
2023/02/23 02:37:32;;;;;;;19.23;6.13;;;;;;;6.05;94.59;100779.19;5034466;28;20427;-67
2023/02/23 02:40:15;;;;;;;13.40;6.63;;;;;;;5.96;95.20;100773.53;5034083;28;20462;-67
2023/02/23 02:42:59;;;;;;;17.33;6.20;;;;;;;5.99;95.00;100774.91;5034226;28;20466;-69
2023/02/23 02:45:36;;;;;;;26.60;8.20;;;;;;;6.04;94.80;100778.41;5034231;28;20494;-67
2023/02/23 02:48:08;;;;;;;17.40;6.67;;;;;;;6.01;95.05;100770.03;5033995;28;20431;-67
2023/02/23 02:50:45;;;;;;;17.10;5.60;;;;;;;6.02;94.75;100775.19;5034139;28;20423;-66
2023/02/23 02:53:17;;;;;;;16.67;6.30;;;;;;;6.02;94.11;100767.09;5034173;28;20427;-67
2023/02/23 02:55:47;;;;;;;23.80;7.67;;;;;;;6.03;94.00;100766.03;5034063;28;20422;-68
2023/02/23 02:58:16;;;;;;;20.43;7.60;;;;;;;5.96;94.32;100759.28;5034058;28;20526;-67
2023/02/23 04:19:26;;;;;;;26.77;8.13;;;;;;;5.45;97.57;100734.94;5033003;28;20424;-67
2023/02/23 04:21:53;;;;;;;23.87;8.53;;;;;;;5.45;97.82;100733.06;5036749;28;20501;-67
2023/02/23 04:24:19;;;;;;;18.63;7.60;;;;;;;5.45;98.02;100732.25;5036937;28;20465;-67
2023/02/23 04:26:46;;;;;;;15.00;7.33;;;;;;;5.50;97.64;100725.00;5036757;28;20467;-67
2023/02/23 04:29:13;;;;;;;25.53;8.00;;;;;;;5.50;97.43;100724.19;5036729;28;20442;-67
2023/02/23 04:31:40;;;;;;;19.93;7.87;;;;;;;5.43;97.50;100721.75;5036373;28;20451;-66
2023/02/23 04:34:08;;;;;;;25.53;8.27;;;;;;;5.47;97.67;100719.34;5036442;28;20991;-68
2023/02/23 04:36:35;;;;;;;22.60;8.13;;;;;;;5.50;97.42;100714.25;5036467;28;20553;-67
2023/02/23 04:39:02;;;;;;;23.00;8.97;;;;;;;5.49;97.36;100722.56;5036734;28;20505;-67
2023/02/23 04:41:28;;;;;;;16.03;6.97;;;;;;;5.46;96.74;100720.44;5036241;28;20455;-67
2023/02/23 04:43:55;;;;;;;20.50;8.17;;;;;;;5.47;96.49;100714.78;5036510;28;20477;-67
2023/02/23 04:46:22;;;;;;;22.03;8.13;;;;;;;5.49;96.03;100717.19;5036404;28;20490;-67
2023/02/23 04:48:48;;;;;;;25.17;8.80;;;;;;;5.46;96.33;100704.31;5036111;28;20525;-68
2023/02/23 04:51:16;;;;;;;29.83;8.47;;;;;;;5.39;96.55;100709.09;5036402;28;20477;-68
2023/02/23 04:53:43;;;;;;;20.67;7.10;;;;;;;5.36;96.42;100706.94;5036276;28;20522;-67
2023/02/23 04:56:10;;;;;;;19.77;8.30;;;;;;;5.35;96.41;100705.31;5036248;28;20463;-68
2023/02/23 04:58:36;;;;;;;18.30;8.43;;;;;;;5.36;96.72;100706.94;5036240;28;20442;-67
2023/02/23 05:01:08;;;;;;;24.30;7.70;;;;;;;5.31;96.60;100705.88;5036413;28;20520;-68
2023/02/23 05:03:35;;;;;;;20.43;9.10;;;;;;;5.36;96.58;100706.94;5035712;28;21086;-67
2023/02/23 05:06:01;;;;;;;19.50;9.23;;;;;;;5.34;96.08;100701.03;5035999;28;20467;-67
2023/02/23 05:08:30;;;;;;;20.63;8.17;;;;;;;5.31;95.62;100700.50;5035745;28;20439;-68
2023/02/23 05:10:56;;;;;;;17.23;7.40;;;;;;;5.31;95.94;100700.50;5035988;28;20452;-68
2023/02/23 05:13:23;;;;;;;21.47;8.43;;;;;;;5.26;96.15;100696.97;5035927;28;20477;-67
2023/02/23 05:15:50;;;;;;;21.30;9.07;;;;;;;5.22;96.03;100698.56;5035686;28;20514;-67
2023/02/23 05:18:16;;;;;;;20.07;7.80;;;;;;;5.21;95.87;100686.22;5035909;28;20493;-68
2023/02/23 05:20:44;;;;;;;19.07;8.70;;;;;;;5.23;95.99;100695.63;5035481;28;20944;-68
2023/02/23 05:23:11;;;;;;;23.20;8.50;;;;;;;5.16;97.52;100696.94;5035528;28;20988;-68
2023/02/23 05:25:39;;;;;;;23.67;8.23;;;;;;;5.13;98.26;100695.56;5035631;28;20471;-68
2023/02/23 05:28:06;;;;;;;17.90;7.10;;;;;;;5.13;98.42;100692.06;5035722;28;20449;-67
2023/02/23 05:30:33;;;;;;;21.60;7.83;;;;;;;5.10;99.14;100703.38;5035226;28;20483;-68
2023/02/23 05:32:59;;;;;;;18.40;6.90;;;;;;;5.14;99.08;100701.78;5035618;28;20431;-68
2023/02/23 05:35:26;;;;;;;27.27;8.70;;;;;;;5.12;99.44;100698.53;5035486;28;20455;-68
2023/02/23 05:37:53;;;;;;;20.17;9.17;;;;;;;5.15;99.26;100701.50;5035236;28;21028;-68
2023/02/23 05:40:19;;;;;;;25.50;9.50;;;;;;;5.13;99.30;100703.63;5035460;28;20443;-68
2023/02/23 05:42:47;;;;;;;27.50;8.57;;;;;;;5.18;99.20;100701.00;5035055;28;21066;-68
2023/02/23 05:45:14;;;;;;;16.80;9.03;;;;;;;5.17;98.85;100703.91;5035324;28;20443;-68
2023/02/23 05:47:41;;;;;;;19.87;8.40;;;;;;;5.16;98.84;100708.47;5035570;28;20450;-68
2023/02/23 05:50:10;;;;;;;19.60;8.00;;;;;;;5.13;98.83;100717.03;5035086;28;20454;-68
2023/02/23 05:52:40;;;;;;;16.20;8.10;;;;;;;5.14;98.91;100725.94;5035174;28;20435;-68
2023/02/23 05:55:09;;;;;;;21.93;8.57;;;;;;;5.15;98.58;100725.66;5034808;28;20982;-67
2023/02/23 05:57:36;;;;;;;22.50;8.17;;;;;;;5.08;99.28;100727.75;5034655;28;20864;-67
2023/02/23 06:00:06;;;;;;;27.57;9.03;;;;;;;5.06;99.28;100724.53;5034701;28;21008;-67
2023/02/23 06:02:33;;;;;;;26.80;8.63;;;;;;;5.09;99.27;100725.88;5035110;28;20554;-67
2023/02/23 06:04:59;;;;;;;21.50;9.03;;;;;;;5.05;99.14;100722.94;5034824;28;20544;-67
2023/02/23 06:07:26;;;;;;;18.83;7.90;;;;;;;5.03;99.07;100725.06;5034820;28;20447;-67
2023/02/23 06:09:53;;;;;;;27.60;9.20;;;;;;;4.96;98.28;100725.31;5034765;28;20457;-67
2023/02/23 06:12:19;;;;;;;26.50;8.60;;;;;;;4.94;98.98;100732.00;5035026;28;20499;-68
2023/02/23 06:14:46;;;;;;;35.73;9.97;;;;;;;4.94;98.35;100729.31;5034718;28;20505;-67
2023/02/23 06:17:14;;;;;;;34.33;9.03;;;;;;;4.95;97.72;100734.41;5034462;28;20489;-68
2023/02/23 06:19:40;;;;;;;22.23;7.77;;;;;;;4.91;97.66;100722.56;5034663;28;20960;-69
2023/02/23 06:22:07;;;;;;;17.77;8.10;;;;;;;4.93;97.23;100731.19;5034578;28;20530;-67
2023/02/23 06:24:34;;;;;;;24.30;8.97;;;;;;;4.92;97.38;100721.53;5034258;28;20446;-67
2023/02/23 06:27:01;;;;;;;22.67;9.67;;;;;;;4.89;97.81;100726.59;5034213;28;20841;-68
2023/02/23 06:29:28;;;;;;;23.40;9.63;;;;;;;4.83;97.65;100724.97;5034710;28;20542;-68
2023/02/23 06:31:54;;;;;;;24.67;9.43;;;;;;;4.86;97.42;100735.16;5034229;28;20530;-67
2023/02/23 06:34:22;;;;;;;22.13;8.07;;;;;;;4.89;97.84;100734.66;5034381;28;20482;-67
2023/02/23 06:36:49;;;;;;;18.37;8.90;;;;;;;4.92;98.26;100734.94;5034247;28;20501;-67
2023/02/23 06:39:15;;;;;;;26.30;9.17;;;;;;;4.86;97.40;100738.66;5034266;28;20454;-67
2023/02/23 06:41:42;;;;;;;31.77;9.53;;;;;;;4.95;98.09;100736.28;5034338;28;20449;-67
2023/02/23 06:44:08;;;;;;;22.33;9.50;;;;;;;4.99;99.28;100740.06;5033104;28;20479;-67
2023/02/23 06:46:35;;;;;;;23.13;8.50;;;;;;;5.09;99.47;100734.78;5034050;28;20459;-67
2023/02/23 06:49:02;;;;;;;30.27;9.77;;;;;;;5.06;99.02;100744.16;5033729;28;20944;-67
2023/02/23 06:51:30;;;;;;;24.23;9.10;;;;;;;5.13;98.26;100743.91;5033991;28;20562;-67
2023/02/23 06:53:56;;;;;;;27.53;9.60;;;;;;;5.18;98.47;100745.78;5033994;28;20477;-67
2023/02/23 06:56:23;;;;;;;32.67;11.23;;;;;;;5.17;98.22;100750.38;5033565;28;20498;-66
2023/02/23 06:58:50;;;;;;;22.00;8.80;;;;;;;5.23;98.10;100746.66;5034017;28;21028;-67
2023/02/23 07:01:17;;;;;;;27.20;10.40;;;;;;;5.31;97.67;100748.00;5033897;28;20447;-67
2023/02/23 07:03:44;;;;;;;22.13;9.40;;;;;;;5.36;97.42;100755.28;5033449;28;21026;-68
2023/02/23 07:06:10;;;;;;;29.57;9.47;;;;;;;5.36;97.53;100750.75;5033746;28;20521;-68
2023/02/23 07:08:38;;;;;;;22.13;8.80;;;;;;;5.40;97.13;100753.69;5033423;28;20882;-65
2023/02/23 07:11:07;;;;;;;27.37;9.97;;;;;;;5.42;97.73;100751.56;5033853;28;20525;-68
2023/02/23 07:13:34;;;;;;;24.47;9.90;;;;;;;5.50;97.55;100756.44;5033728;28;20519;-68
2023/02/23 07:16:00;;;;;;;37.10;9.60;;;;;;;5.53;97.09;100748.66;5033155;28;20514;-68
2023/02/23 07:18:27;;;;;;;28.07;9.83;;;;;;;5.64;97.05;100757.56;5033246;28;20451;-68
2023/02/23 07:20:53;;;;;;;27.53;8.23;;;;;;;5.71;97.03;100751.91;5033354;28;20463;-68
2023/02/23 07:23:21;;;;;;;25.67;8.57;;;;;;;5.72;96.63;100750.88;5033044;28;21087;-68
2023/02/23 07:25:50;;;;;;;24.53;9.60;;;;;;;5.71;96.62;100749.22;5032963;28;20525;-68
2023/02/23 07:28:17;;;;;;;30.63;9.83;;;;;;;5.75;96.19;100745.75;5033523;28;20446;-66
2023/02/23 07:30:43;;;;;;;20.40;8.73;;;;;;;5.87;95.84;100745.53;5032984;28;20439;-67
2023/02/23 07:33:10;;;;;;;21.60;8.30;;;;;;;5.89;95.79;100748.78;5033141;28;20505;-67
2023/02/23 07:35:36;;;;;;;30.73;8.83;;;;;;;5.97;94.88;100740.19;5033236;28;20861;-67
2023/02/23 07:38:06;;;;;;;19.90;8.53;;;;;;;6.01;95.28;100746.66;5033327;28;20982;-67
2023/02/23 07:40:33;;;;;;;24.40;9.57;;;;;;;6.06;95.18;100749.38;5033270;28;20466;-67
2023/02/23 07:43:00;;;;;;;20.27;8.40;;;;;;;6.12;94.62;100749.38;5033353;28;20489;-67
2023/02/23 07:45:27;;;;;;;25.10;9.90;;;;;;;6.13;94.57;100754.47;5033006;28;20498;-67
2023/02/23 07:47:54;;;;;;;28.17;9.00;;;;;;;6.14;94.20;100755.28;5033353;28;20450;-67
2023/02/23 07:50:21;;;;;;;29.77;9.90;;;;;;;6.10;94.54;100748.81;5033219;28;20443;-67
2023/02/23 07:52:47;;;;;;;30.53;9.43;;;;;;;6.10;93.96;100744.25;5033195;28;20479;-67
2023/02/23 07:55:14;;;;;;;22.37;9.10;;;;;;;6.10;93.86;100746.13;5032907;28;20443;-67
2023/02/23 07:57:40;;;;;;;19.90;7.40;;;;;;;6.12;94.22;100742.09;5033065;28;20619;-69
2023/02/23 08:00:10;;;;;;;22.20;9.03;;;;;;;6.00;93.69;100750.41;5032805;28;20445;-68
2023/02/23 08:02:37;;;;;;;30.13;9.73;;;;;;;6.04;93.64;100756.06;5032600;28;20451;-68
2023/02/23 08:05:04;;;;;;;24.97;9.17;;;;;;;6.06;93.62;100748.53;5032868;28;20435;-67
2023/02/23 08:07:32;;;;;;;34.30;10.13;;;;;;;6.12;93.62;100747.50;5032727;28;20504;-67
2023/02/23 08:09:58;;;;;;;24.37;9.20;;;;;;;6.15;93.14;100746.13;5032915;28;20891;-67
2023/02/23 08:12:25;;;;;;;25.83;8.73;;;;;;;6.18;93.39;100742.91;5032961;28;20817;-67
2023/02/23 08:14:52;;;;;;;21.70;9.20;;;;;;;6.20;93.65;100740.78;5032574;28;21011;-67
2023/02/23 08:17:20;;;;;;;23.40;8.00;;;;;;;6.20;93.89;100743.47;5032481;28;20621;-66
2023/02/23 08:19:48;;;;;;;18.17;8.03;;;;;;;6.30;94.14;100743.47;5032833;28;20431;-66
2023/02/23 08:22:15;;;;;;;19.43;9.03;;;;;;;6.35;94.11;100742.66;5032767;28;20478;-66
2023/02/23 08:24:41;;;;;;;25.43;9.53;;;;;;;6.36;93.70;100737.00;5032379;28;21075;-66
2023/02/23 08:27:08;;;;;;;16.43;7.90;;;;;;;6.40;93.47;100743.47;5032727;28;20899;-66
2023/02/23 08:29:34;;;;;;;25.37;8.50;;;;;;;6.46;93.29;100747.78;5032716;28;20538;-66
2023/02/23 08:32:02;;;;;;;28.13;9.40;;;;;;;6.50;93.15;100743.44;5032798;28;20538;-66
2023/02/23 08:34:31;;;;;;;21.50;9.03;;;;;;;6.60;93.57;100742.66;5032410;28;20443;-66
2023/02/23 08:36:58;;;;;;;27.60;9.60;;;;;;;6.69;93.49;100735.66;5032662;28;20467;-66
2023/02/23 08:39:25;;;;;;;21.67;8.60;;;;;;;6.68;93.62;100750.16;5032422;28;20964;-67
2023/02/23 08:41:54;;;;;;;30.00;10.07;;;;;;;6.73;93.15;100742.13;5032645;28;20475;-68
2023/02/23 08:44:21;;;;;;;26.47;8.80;;;;;;;6.73;92.63;100752.88;5032606;28;20482;-69
2023/02/23 08:46:47;;;;;;;19.87;8.43;;;;;;;6.72;92.83;100756.63;5032544;28;20499;-68
2023/02/23 08:49:14;;;;;;;22.63;8.37;;;;;;;6.72;93.41;100761.22;5032322;28;20475;-67
2023/02/23 08:51:42;;;;;;;21.50;8.50;;;;;;;6.80;93.64;100752.59;5032592;28;20442;-68
2023/02/23 08:54:13;;;;;;;16.93;8.20;;;;;;;6.77;92.41;100748.56;5032819;28;20445;-71
2023/02/23 08:56:40;;;;;;;23.20;8.00;;;;;;;6.75;93.38;100750.72;5032405;28;20466;-71
2023/02/23 08:59:07;;;;;;;22.33;8.40;;;;;;;6.83;93.42;100755.56;5032516;28;20447;-68
2023/02/23 09:01:34;;;;;;;27.50;8.30;;;;;;;6.85;93.74;100755.28;5032483;28;20447;-68
2023/02/23 09:04:00;;;;;;;19.60;8.93;;;;;;;6.91;92.91;100754.19;5032411;28;20486;-70
2023/02/23 09:06:28;;;;;;;24.67;8.30;;;;;;;6.96;92.80;100754.19;5033444;28;20463;-68
2023/02/23 09:08:56;;;;;;;31.60;9.93;;;;;;;6.97;93.19;100753.09;5035929;28;20478;-68
2023/02/23 09:11:23;;;;;;;30.77;9.90;;;;;;;7.04;93.02;100750.94;5035879;28;20449;-68
2023/02/23 09:13:50;;;;;;;23.33;10.40;;;;;;;7.07;93.67;100761.16;5035844;28;20439;-69
2023/02/23 09:16:17;;;;;;;20.27;9.00;;;;;;;7.18;93.52;100758.44;5035497;28;20503;-68
2023/02/23 09:18:44;;;;;;;20.83;7.90;;;;;;;7.17;92.16;100752.25;5035774;28;20435;-68
2023/02/23 09:21:19;;;;;;;28.30;10.00;;;;;;;7.20;91.98;100756.28;5035413;28;20917;-69
2023/02/23 09:23:47;;;;;;;18.73;8.30;;;;;;;7.19;92.26;100754.66;5035687;28;20462;-65
2023/02/23 09:26:16;;;;;;;28.47;8.97;;;;;;;7.17;91.86;100757.66;5035530;28;20498;-66
2023/02/23 09:28:43;;;;;;;20.33;8.60;;;;;;;7.12;91.99;100751.44;5035812;28;20457;-65
2023/02/23 09:31:11;;;;;;;21.40;9.20;;;;;;;7.16;92.17;100753.31;5035441;28;20439;-68
2023/02/23 09:33:38;;;;;;;27.93;9.60;;;;;;;7.23;92.99;100748.44;5035483;28;20439;-68
2023/02/23 09:36:06;;;;;;;27.33;8.47;;;;;;;7.36;92.77;100748.97;5035511;28;20463;-66
2023/02/23 09:38:33;;;;;;;16.40;7.43;;;;;;;7.45;92.14;100748.09;5035458;28;20493;-67
2023/02/23 09:41:00;;;;;;;26.67;9.10;;;;;;;7.52;91.98;100748.59;5035354;28;20443;-67
2023/02/23 09:43:35;;;;;;;26.87;8.90;;;;;;;7.55;90.92;100747.25;5034992;28;20577;-66
2023/02/23 09:46:12;;;;;;;22.40;8.30;;;;;;;7.57;91.35;100755.88;5035349;28;20463;-67
2023/02/23 09:48:39;;;;;;;17.67;7.97;;;;;;;7.63;91.44;100749.38;5035271;28;20423;-68
2023/02/23 09:51:08;;;;;;;25.63;8.03;;;;;;;7.79;91.38;100750.91;5035277;28;20453;-68
2023/02/23 09:53:39;;;;;;;20.00;9.10;;;;;;;7.99;91.00;100743.78;5035039;28;20530;-68
2023/02/23 09:56:12;;;;;;;15.10;7.47;;;;;;;8.13;90.54;100744.75;5034783;28;20554;-67
2023/02/23 09:58:40;;;;;;;24.10;9.03;;;;;;;8.34;89.34;100748.13;5035172;28;20431;-68
2023/02/23 10:01:41;;;;;;;20.80;10.00;;;;;;;8.51;88.73;100753.16;5034459;28;20960;-68
2023/02/23 10:04:16;;;;;;;22.70;8.80;;;;;;;8.70;87.91;100754.03;5034057;28;20503;-67
2023/02/23 10:06:48;;;;;;;17.57;8.67;;;;;;;8.86;87.04;100752.03;5034240;28;20497;-68
2023/02/23 10:09:22;;;;;;;19.90;9.57;;;;;;;8.88;86.46;100757.94;5034371;28;20443;-68
2023/02/23 10:11:56;;;;;;;24.83;9.13;;;;;;;8.95;86.56;100760.31;5034789;28;20455;-68
2023/02/23 10:14:35;;;;;;;30.63;9.37;;;;;;;9.03;86.67;100757.78;5034733;28;20460;-69
2023/02/23 10:17:15;;;;;;;22.77;9.53;;;;;;;9.10;86.54;100755.53;5034081;28;20471;-69
2023/02/23 10:19:50;;;;;;;25.83;10.10;;;;;;;9.09;85.65;100755.84;5034479;28;20427;-69
2023/02/23 10:22:19;;;;;;;20.70;7.83;;;;;;;9.20;86.12;100748.41;5034748;28;20455;-68
2023/02/23 10:24:52;;;;;;;22.53;8.33;;;;;;;9.16;86.27;100747.38;5034527;28;20501;-68
2023/02/23 10:27:23;;;;;;;21.33;8.77;;;;;;;9.39;86.62;100753.88;5034556;28;20894;-66
2023/02/23 10:29:54;;;;;;;20.80;8.90;;;;;;;9.56;86.13;100749.59;5034219;28;20431;-69
2023/02/23 10:32:26;;;;;;;24.53;10.03;;;;;;;9.66;85.02;100745.97;5034173;28;20905;-70
2023/02/23 10:34:55;;;;;;;18.30;8.00;;;;;;;9.72;84.72;100758.31;5034423;28;20507;-70
2023/02/23 10:37:23;;;;;;;22.73;9.57;;;;;;;9.84;84.83;100750.56;5034377;28;20513;-70
2023/02/23 10:39:50;;;;;;;23.60;8.63;;;;;;;9.97;84.46;100756.38;5034317;28;20439;-70
2023/02/23 10:42:21;;;;;;;18.57;7.77;;;;;;;10.10;83.96;100753.72;5034001;28;21002;-70
2023/02/23 10:44:49;;;;;;;35.13;9.83;;;;;;;10.18;83.84;100757.69;5034273;28;20463;-70
2023/02/23 10:47:20;;;;;;;20.37;9.57;;;;;;;10.32;82.67;100753.16;5033845;28;20838;-70
2023/02/23 10:49:49;;;;;;;25.17;10.20;;;;;;;10.38;82.35;100751.16;5034200;28;20434;-70
2023/02/23 10:52:21;;;;;;;24.30;8.80;;;;;;;10.45;81.72;100746.19;5034149;28;20817;-70
2023/02/23 10:54:49;;;;;;;20.33;8.43;;;;;;;10.46;82.10;100742.38;5034105;28;20438;-70
2023/02/23 10:57:23;;;;;;;18.80;8.40;;;;;;;10.55;81.82;100745.22;5035023;28;20527;-70
2023/02/23 11:00:01;;;;;;;17.20;7.80;;;;;;;10.46;82.65;100741.56;5038676;28;20450;-68
2023/02/23 11:02:30;;;;;;;27.57;10.37;;;;;;;10.41;82.91;100742.47;5037930;28;20777;-70
2023/02/23 11:04:59;;;;;;;17.37;8.17;;;;;;;10.66;82.56;100745.81;5038796;28;20570;-68
2023/02/23 11:07:28;;;;;;;17.17;8.40;;;;;;;10.83;82.02;100740.63;5038177;28;20486;-68
2023/02/23 11:09:56;;;;;;;21.33;8.30;;;;;;;11.04;81.33;100746.50;5038278;28;20454;-68
2023/02/23 11:12:27;;;;;;;22.97;8.90;;;;;;;11.27;80.16;100736.56;5041962;28;20444;-69
2023/02/23 11:14:55;;;;;;;19.57;8.37;;;;;;;11.31;79.18;100735.66;5039133;28;20478;-69
2023/02/23 11:17:32;;;;;;;28.47;8.50;;;;;;;11.45;79.88;100737.56;5039915;28;20479;-68
2023/02/23 11:20:01;;;;;;;25.57;10.00;;;;;;;11.56;80.36;100733.53;5040287;28;20495;-69
2023/02/23 11:22:31;;;;;;;19.20;8.90;;;;;;;11.81;80.73;100732.16;5039302;28;20443;-69
2023/02/23 11:25:00;;;;;;;20.00;10.17;;;;;;;12.02;78.89;100725.19;5037696;28;20463;-69
2023/02/23 11:27:27;;;;;;;27.80;11.30;;;;;;;12.02;77.74;100721.69;5039564;28;20880;-69
2023/02/23 11:29:56;;;;;;;21.33;9.63;;;;;;;11.72;79.71;100718.50;5038451;28;20447;-68
2023/02/23 11:32:29;;;;;;;24.50;9.80;;;;;;;12.04;78.58;100714.03;5038641;28;20448;-68
2023/02/23 11:35:15;;;;;;;23.57;8.80;;;;;;;12.25;78.17;100714.34;5039696;28;20464;-69
2023/02/23 11:37:41;;;;;;;22.27;9.37;;;;;;;12.54;76.76;100711.97;5039487;28;20537;-69
2023/02/23 11:40:20;;;;;;;19.67;7.43;;;;;;;12.75;76.13;100714.97;5039266;28;20454;-69
2023/02/23 11:42:52;;;;;;;13.93;7.60;;;;;;;13.03;75.87;100707.41;5040603;28;20979;-69
2023/02/23 11:45:22;;;;;;;23.10;9.57;;;;;;;12.96;74.70;100706.25;5039656;28;20495;-68
2023/02/23 11:47:51;;;;;;;24.83;9.00;;;;;;;13.19;73.88;100701.53;5039405;28;20455;-67
2023/02/23 11:50:25;;;;;;;23.80;8.93;;;;;;;13.18;73.52;100698.03;5040920;28;20501;-68
2023/02/23 11:53:01;;;;;;;18.13;8.97;;;;;;;13.11;73.77;100692.25;5037837;28;20510;-68
2023/02/23 11:55:29;;;;;;;22.97;8.77;;;;;;;13.00;74.51;100702.59;5032841;28;21019;-68
2023/02/23 11:58:08;;;;;;;23.77;9.53;;;;;;;12.96;74.20;100696.19;5033120;28;20518;-68
2023/02/23 12:00:35;;;;;;;19.70;8.50;;;;;;;13.15;74.51;100693.22;5033615;28;20454;-66
2023/02/23 12:03:04;;;;;;;19.00;8.60;;;;;;;13.34;74.40;100695.72;5033512;28;20482;-65
2023/02/23 12:05:33;;;;;;;21.93;9.43;;;;;;;13.49;73.25;100689.81;5032704;28;20578;-66
2023/02/23 12:08:04;;;;;;;19.63;9.17;;;;;;;13.70;72.67;100697.38;5032820;28;20454;-66
2023/02/23 12:10:34;;;;;;;20.13;8.63;;;;;;;13.89;72.22;100685.03;5033095;28;20861;-66
2023/02/23 12:13:09;;;;;;;22.50;8.53;;;;;;;14.08;71.47;100697.53;5033101;28;20423;-66
2023/02/23 12:15:43;;;;;;;18.90;9.00;;;;;;;13.85;71.85;100694.94;5032521;28;20477;-66
2023/02/23 12:18:25;;;;;;;21.70;9.17;;;;;;;13.79;71.55;100700.88;5032901;28;20450;-66
2023/02/23 12:20:59;;;;;;;24.30;10.50;;;;;;;13.61;71.47;100687.25;5032972;28;20430;-66
2023/02/23 12:23:30;;;;;;;23.37;8.40;;;;;;;13.38;73.31;100691.25;5032948;28;20431;-66
2023/02/23 12:26:04;;;;;;;24.60;9.23;;;;;;;13.25;74.14;100690.25;5032832;28;20479;-66
2023/02/23 12:28:36;;;;;;;24.20;9.50;;;;;;;13.06;74.81;100693.22;5032928;28;20842;-67
2023/02/23 12:31:16;;;;;;;20.67;9.77;;;;;;;13.07;74.69;100691.28;5033091;28;20428;-65
2023/02/23 12:33:47;;;;;;;21.17;8.97;;;;;;;12.79;75.81;100683.34;5032860;28;20526;-66
2023/02/23 12:36:25;;;;;;;24.67;10.17;;;;;;;12.79;76.59;100686.06;5032785;28;20455;-67
2023/02/23 12:38:57;;;;;;;21.47;8.63;;;;;;;12.79;77.13;100686.06;5033048;28;20439;-68
2023/02/23 12:41:35;;;;;;;28.00;10.17;;;;;;;12.76;76.90;100678.53;5034198;28;20522;-66
2023/02/23 12:44:12;;;;;;;16.40;7.57;;;;;;;12.62;77.55;100681.34;5036301;28;20432;-65
2023/02/23 12:46:47;;;;;;;27.83;8.70;;;;;;;12.65;78.15;100685.34;5036483;28;20465;-66
2023/02/23 12:49:19;;;;;;;19.83;9.40;;;;;;;12.47;78.79;100680.94;5036540;28;20480;-66
2023/02/23 12:51:51;;;;;;;28.00;10.70;;;;;;;12.41;79.06;100680.25;5036536;28;20464;-65
2023/02/23 12:54:19;;;;;;;21.60;10.13;;;;;;;12.32;79.65;100676.69;5036289;28;20905;-66